sensor_id;sensor_type;location;lat;lon;timestamp;P1;durP1;ratioP1;P2;durP2;ratioP2
46745;SDS011;32493;50.514;9.678;2022-09-28T19:58:22;8.27;;;4.28;;
46745;SDS011;32493;50.514;9.678;2022-09-28T20:00:35;6.03;;;4.43;;
46745;SDS011;32493;50.514;9.678;2022-09-28T20:02:42;6.10;;;4.30;;
46745;SDS011;32493;50.514;9.678;2022-09-28T20:04:48;6.80;;;4.50;;
46745;SDS011;32493;50.514;9.678;2022-09-28T20:06:54;5.45;;;4.13;;
46745;SDS011;32493;50.514;9.678;2022-09-28T20:09:00;8.00;;;4.07;;
46745;SDS011;32493;50.514;9.678;2022-09-28T20:11:08;7.05;;;4.07;;
46745;SDS011;32493;50.514;9.678;2022-09-28T20:13:14;7.22;;;4.13;;
46745;SDS011;32493;50.514;9.678;2022-09-28T20:15:22;6.82;;;4.07;;
46745;SDS011;32493;50.514;9.678;2022-09-28T20:17:29;6.18;;;4.03;;
46745;SDS011;32493;50.514;9.678;2022-09-28T20:19:34;7.70;;;3.67;;
46745;SDS011;32493;50.514;9.678;2022-09-28T20:21:42;7.93;;;4.20;;
46745;SDS011;32493;50.514;9.678;2022-09-28T20:23:49;8.18;;;4.05;;
46745;SDS011;32493;50.514;9.678;2022-09-28T20:25:57;8.00;;;4.07;;
46745;SDS011;32493;50.514;9.678;2022-09-28T20:28:03;5.80;;;4.15;;
46745;SDS011;32493;50.514;9.678;2022-09-28T20:30:09;5.28;;;4.15;;
46745;SDS011;32493;50.514;9.678;2022-09-28T20:32:20;5.07;;;3.90;;
46745;SDS011;32493;50.514;9.678;2022-09-28T20:34:27;5.50;;;3.75;;
46745;SDS011;32493;50.514;9.678;2022-09-28T20:36:35;5.57;;;3.85;;
46745;SDS011;32493;50.514;9.678;2022-09-28T20:38:45;4.47;;;3.40;;
46745;SDS011;32493;50.514;9.678;2022-09-28T20:40:51;7.18;;;3.95;;
46745;SDS011;32493;50.514;9.678;2022-09-28T20:42:56;6.88;;;4.22;;
46745;SDS011;32493;50.514;9.678;2022-09-28T20:45:03;7.22;;;4.15;;
46745;SDS011;32493;50.514;9.678;2022-09-28T20:47:09;6.40;;;4.05;;
46745;SDS011;32493;50.514;9.678;2022-09-28T20:49:16;5.60;;;3.95;;
46745;SDS011;32493;50.514;9.678;2022-09-28T20:51:21;6.78;;;4.00;;
46745;SDS011;32493;50.514;9.678;2022-09-28T20:53:27;5.60;;;4.10;;
46745;SDS011;32493;50.514;9.678;2022-09-28T20:55:32;6.53;;;4.05;;
46745;SDS011;32493;50.514;9.678;2022-09-28T20:57:38;7.07;;;4.45;;
46745;SDS011;32493;50.514;9.678;2022-09-28T21:01:55;7.35;;;4.32;;
46745;SDS011;32493;50.514;9.678;2022-09-28T21:04:01;6.60;;;3.97;;
46745;SDS011;32493;50.514;9.678;2022-09-28T21:06:11;12.85;;;4.40;;
46745;SDS011;32493;50.514;9.678;2022-09-28T21:08:19;7.47;;;4.15;;
46745;SDS011;32493;50.514;9.678;2022-09-28T21:10:26;8.23;;;3.92;;
46745;SDS011;32493;50.514;9.678;2022-09-28T21:12:31;6.95;;;4.30;;
46745;SDS011;32493;50.514;9.678;2022-09-28T21:14:43;6.72;;;3.67;;
46745;SDS011;32493;50.514;9.678;2022-09-28T21:16:49;5.07;;;3.83;;
46745;SDS011;32493;50.514;9.678;2022-09-28T21:18:55;5.63;;;3.80;;
46745;SDS011;32493;50.514;9.678;2022-09-28T21:21:00;5.45;;;3.55;;
46745;SDS011;32493;50.514;9.678;2022-09-28T21:23:13;4.80;;;3.53;;
46745;SDS011;32493;50.514;9.678;2022-09-28T21:25:26;8.20;;;3.87;;
46745;SDS011;32493;50.514;9.678;2022-09-28T21:27:34;6.30;;;4.20;;
46745;SDS011;32493;50.514;9.678;2022-09-28T21:29:39;5.53;;;3.55;;
46745;SDS011;32493;50.514;9.678;2022-09-28T21:31:46;5.53;;;3.58;;
46745;SDS011;32493;50.514;9.678;2022-09-28T21:33:55;4.70;;;3.40;;
46745;SDS011;32493;50.514;9.678;2022-09-28T21:36:01;6.82;;;3.53;;
46745;SDS011;32493;50.514;9.678;2022-09-28T21:38:12;6.05;;;3.45;;
46745;SDS011;32493;50.514;9.678;2022-09-28T21:40:19;5.00;;;3.00;;
46745;SDS011;32493;50.514;9.678;2022-09-28T21:42:24;5.15;;;3.50;;
46745;SDS011;32493;50.514;9.678;2022-09-28T21:44:31;10.25;;;3.28;;
46745;SDS011;32493;50.514;9.678;2022-09-28T21:46:36;7.22;;;3.15;;
46745;SDS011;32493;50.514;9.678;2022-09-28T21:48:42;10.10;;;3.42;;
46745;SDS011;32493;50.514;9.678;2022-09-28T21:50:53;6.05;;;3.70;;
46745;SDS011;32493;50.514;9.678;2022-09-28T21:52:59;8.93;;;3.65;;
46745;SDS011;32493;50.514;9.678;2022-09-28T21:55:08;8.65;;;4.35;;
46745;SDS011;32493;50.514;9.678;2022-09-28T21:57:13;7.45;;;4.60;;
46745;SDS011;32493;50.514;9.678;2022-09-28T21:59:19;5.85;;;3.95;;
46745;SDS011;32493;50.514;9.678;2022-09-28T22:01:27;5.97;;;3.88;;
46745;SDS011;32493;50.514;9.678;2022-09-28T22:03:33;8.60;;;4.53;;
46745;SDS011;32493;50.514;9.678;2022-09-28T22:05:40;7.95;;;4.80;;
46745;SDS011;32493;50.514;9.678;2022-09-28T22:07:47;6.50;;;3.85;;
46745;SDS011;32493;50.514;9.678;2022-09-28T22:09:52;8.80;;;4.68;;
46745;SDS011;32493;50.514;9.678;2022-09-28T22:12:00;6.38;;;3.72;;
46745;SDS011;32493;50.514;9.678;2022-09-28T22:14:16;5.43;;;3.55;;
46745;SDS011;32493;50.514;9.678;2022-09-28T22:16:31;7.35;;;4.20;;
46745;SDS011;32493;50.514;9.678;2022-09-28T22:18:37;5.78;;;3.45;;
46745;SDS011;32493;50.514;9.678;2022-09-28T22:20:43;5.80;;;3.60;;
46745;SDS011;32493;50.514;9.678;2022-09-28T22:22:52;6.85;;;3.70;;
46745;SDS011;32493;50.514;9.678;2022-09-28T22:25:04;4.53;;;3.28;;
46745;SDS011;32493;50.514;9.678;2022-09-28T22:27:17;5.75;;;3.17;;
46745;SDS011;32493;50.514;9.678;2022-09-28T22:29:24;4.78;;;2.90;;
46745;SDS011;32493;50.514;9.678;2022-09-28T22:31:30;6.32;;;3.70;;
46745;SDS011;32493;50.514;9.678;2022-09-28T22:33:52;5.88;;;3.42;;
46745;SDS011;32493;50.514;9.678;2022-09-28T22:36:02;9.23;;;4.60;;
46745;SDS011;32493;50.514;9.678;2022-09-28T22:38:14;12.32;;;5.10;;
46745;SDS011;32493;50.514;9.678;2022-09-28T22:40:25;8.13;;;4.72;;
46745;SDS011;32493;50.514;9.678;2022-09-28T22:42:36;6.47;;;4.78;;
46745;SDS011;32493;50.514;9.678;2022-09-28T22:44:46;6.15;;;3.67;;
46745;SDS011;32493;50.514;9.678;2022-09-28T22:46:55;6.65;;;3.88;;
46745;SDS011;32493;50.514;9.678;2022-09-28T22:49:03;5.53;;;4.10;;
46745;SDS011;32493;50.514;9.678;2022-09-28T22:51:09;8.27;;;4.88;;
46745;SDS011;32493;50.514;9.678;2022-09-28T22:53:17;6.38;;;4.15;;
46745;SDS011;32493;50.514;9.678;2022-09-28T22:55:26;9.20;;;6.13;;
46745;SDS011;32493;50.514;9.678;2022-09-28T22:57:53;7.50;;;5.60;;
46745;SDS011;32493;50.514;9.678;2022-09-28T23:00:00;8.50;;;4.97;;
46745;SDS011;32493;50.514;9.678;2022-09-28T23:02:06;9.35;;;4.95;;
46745;SDS011;32493;50.514;9.678;2022-09-28T23:04:12;7.32;;;4.80;;
46745;SDS011;32493;50.514;9.678;2022-09-28T23:06:22;10.10;;;4.95;;
46745;SDS011;32493;50.514;9.678;2022-09-28T23:08:32;8.43;;;5.32;;
46745;SDS011;32493;50.514;9.678;2022-09-28T23:10:40;10.77;;;5.47;;
46745;SDS011;32493;50.514;9.678;2022-09-28T23:12:45;14.00;;;6.57;;
46745;SDS011;32493;50.514;9.678;2022-09-28T23:14:53;15.55;;;7.47;;
46745;SDS011;32493;50.514;9.678;2022-09-28T23:16:58;12.02;;;6.75;;
46745;SDS011;32493;50.514;9.678;2022-09-28T23:19:03;9.45;;;6.22;;
46745;SDS011;32493;50.514;9.678;2022-09-28T23:21:09;8.85;;;5.75;;
46745;SDS011;32493;50.514;9.678;2022-09-28T23:23:18;7.85;;;5.60;;
46745;SDS011;32493;50.514;9.678;2022-09-28T23:25:23;9.45;;;5.93;;
46745;SDS011;32493;50.514;9.678;2022-09-28T23:27:28;9.45;;;5.47;;
46745;SDS011;32493;50.514;9.678;2022-09-28T23:29:33;8.05;;;5.10;;
46745;SDS011;32493;50.514;9.678;2022-09-28T23:31:45;10.77;;;4.88;;
46745;SDS011;32493;50.514;9.678;2022-09-28T23:33:50;9.18;;;5.22;;
46745;SDS011;32493;50.514;9.678;2022-09-28T23:36:00;8.35;;;5.03;;
46745;SDS011;32493;50.514;9.678;2022-09-28T23:38:05;8.30;;;5.07;;
46745;SDS011;32493;50.514;9.678;2022-09-28T23:40:13;9.82;;;5.78;;
46745;SDS011;32493;50.514;9.678;2022-09-28T23:42:19;10.45;;;4.75;;
46745;SDS011;32493;50.514;9.678;2022-09-28T23:44:24;9.25;;;5.22;;
46745;SDS011;32493;50.514;9.678;2022-09-28T23:46:29;10.10;;;4.97;;
46745;SDS011;32493;50.514;9.678;2022-09-28T23:48:37;7.97;;;4.60;;
46745;SDS011;32493;50.514;9.678;2022-09-28T23:50:43;7.03;;;5.00;;
46745;SDS011;32493;50.514;9.678;2022-09-28T23:52:48;6.40;;;4.78;;
46745;SDS011;32493;50.514;9.678;2022-09-28T23:54:54;8.90;;;5.30;;
46745;SDS011;32493;50.514;9.678;2022-09-28T23:56:59;9.10;;;6.22;;
46745;SDS011;32493;50.514;9.678;2022-09-28T23:59:04;13.27;;;6.00;;
